sensor_id;sensor_type;location;lat;lon;timestamp;P1;durP1;ratioP1;P2;durP2;ratioP2
6665;SDS011;3369;49.906;8.598;2024-02-14T00:01:22;3.95;;;2.60;;
6665;SDS011;3369;49.906;8.598;2024-02-14T00:03:48;4.60;;;2.97;;
6665;SDS011;3369;49.906;8.598;2024-02-14T00:06:14;4.77;;;2.73;;
6665;SDS011;3369;49.906;8.598;2024-02-14T00:08:40;4.60;;;3.00;;
6665;SDS011;3369;49.906;8.598;2024-02-14T00:11:05;5.25;;;3.10;;
6665;SDS011;3369;49.906;8.598;2024-02-14T00:13:31;6.00;;;3.38;;
6665;SDS011;3369;49.906;8.598;2024-02-14T00:15:59;5.32;;;3.50;;
6665;SDS011;3369;49.906;8.598;2024-02-14T00:18:25;6.70;;;3.60;;
6665;SDS011;3369;49.906;8.598;2024-02-14T00:20:51;4.50;;;3.20;;
6665;SDS011;3369;49.906;8.598;2024-02-14T00:23:17;5.33;;;3.37;;
6665;SDS011;3369;49.906;8.598;2024-02-14T00:25:42;5.22;;;3.05;;
6665;SDS011;3369;49.906;8.598;2024-02-14T00:28:08;4.13;;;3.10;;
6665;SDS011;3369;49.906;8.598;2024-02-14T00:30:33;4.60;;;2.90;;
6665;SDS011;3369;49.906;8.598;2024-02-14T00:32:59;3.55;;;2.88;;
6665;SDS011;3369;49.906;8.598;2024-02-14T00:35:25;4.63;;;2.92;;
6665;SDS011;3369;49.906;8.598;2024-02-14T00:37:50;5.22;;;3.30;;
6665;SDS011;3369;49.906;8.598;2024-02-14T00:40:17;4.38;;;2.75;;
6665;SDS011;3369;49.906;8.598;2024-02-14T00:42:43;5.15;;;3.13;;
6665;SDS011;3369;49.906;8.598;2024-02-14T00:45:08;4.13;;;3.00;;
6665;SDS011;3369;49.906;8.598;2024-02-14T00:47:34;4.70;;;2.95;;
6665;SDS011;3369;49.906;8.598;2024-02-14T00:50:01;5.95;;;2.90;;
6665;SDS011;3369;49.906;8.598;2024-02-14T00:52:29;4.85;;;3.20;;
6665;SDS011;3369;49.906;8.598;2024-02-14T00:54:55;4.90;;;2.55;;
6665;SDS011;3369;49.906;8.598;2024-02-14T00:57:21;3.72;;;2.60;;
6665;SDS011;3369;49.906;8.598;2024-02-14T00:59:50;4.65;;;3.00;;
6665;SDS011;3369;49.906;8.598;2024-02-14T01:02:21;4.43;;;2.63;;
6665;SDS011;3369;49.906;8.598;2024-02-14T01:04:47;4.82;;;2.70;;
6665;SDS011;3369;49.906;8.598;2024-02-14T01:07:12;4.73;;;2.80;;
6665;SDS011;3369;49.906;8.598;2024-02-14T01:09:38;4.43;;;2.80;;
6665;SDS011;3369;49.906;8.598;2024-02-14T01:12:04;4.30;;;3.00;;
6665;SDS011;3369;49.906;8.598;2024-02-14T01:14:31;6.10;;;3.05;;
6665;SDS011;3369;49.906;8.598;2024-02-14T01:16:56;5.30;;;3.10;;
6665;SDS011;3369;49.906;8.598;2024-02-14T01:19:22;4.38;;;3.15;;
6665;SDS011;3369;49.906;8.598;2024-02-14T01:21:49;5.28;;;3.20;;
6665;SDS011;3369;49.906;8.598;2024-02-14T01:24:15;3.83;;;2.63;;
6665;SDS011;3369;49.906;8.598;2024-02-14T01:26:41;4.30;;;2.85;;
6665;SDS011;3369;49.906;8.598;2024-02-14T01:29:07;3.45;;;2.83;;
6665;SDS011;3369;49.906;8.598;2024-02-14T01:31:32;6.45;;;3.25;;
6665;SDS011;3369;49.906;8.598;2024-02-14T01:33:59;4.10;;;3.22;;
6665;SDS011;3369;49.906;8.598;2024-02-14T01:36:27;5.03;;;3.30;;
6665;SDS011;3369;49.906;8.598;2024-02-14T01:38:53;5.57;;;3.38;;
6665;SDS011;3369;49.906;8.598;2024-02-14T01:41:19;4.33;;;3.00;;
6665;SDS011;3369;49.906;8.598;2024-02-14T01:43:46;5.50;;;3.30;;
6665;SDS011;3369;49.906;8.598;2024-02-14T01:46:12;6.13;;;3.50;;
6665;SDS011;3369;49.906;8.598;2024-02-14T01:48:38;3.80;;;2.75;;
6665;SDS011;3369;49.906;8.598;2024-02-14T01:51:05;4.60;;;3.00;;
6665;SDS011;3369;49.906;8.598;2024-02-14T01:53:33;4.85;;;2.78;;
6665;SDS011;3369;49.906;8.598;2024-02-14T01:56:01;4.25;;;2.90;;
6665;SDS011;3369;49.906;8.598;2024-02-14T01:58:29;5.63;;;3.33;;
6665;SDS011;3369;49.906;8.598;2024-02-14T02:00:55;5.03;;;3.20;;
6665;SDS011;3369;49.906;8.598;2024-02-14T02:03:24;5.97;;;3.15;;
6665;SDS011;3369;49.906;8.598;2024-02-14T02:05:54;4.63;;;2.80;;
6665;SDS011;3369;49.906;8.598;2024-02-14T02:08:21;6.50;;;3.50;;
6665;SDS011;3369;49.906;8.598;2024-02-14T02:10:46;6.57;;;2.93;;
6665;SDS011;3369;49.906;8.598;2024-02-14T02:13:12;4.97;;;3.10;;
6665;SDS011;3369;49.906;8.598;2024-02-14T02:15:40;5.97;;;2.95;;
6665;SDS011;3369;49.906;8.598;2024-02-14T02:18:09;3.50;;;3.05;;
6665;SDS011;3369;49.906;8.598;2024-02-14T02:20:35;5.30;;;3.15;;
6665;SDS011;3369;49.906;8.598;2024-02-14T02:23:01;5.43;;;3.28;;
6665;SDS011;3369;49.906;8.598;2024-02-14T02:25:27;7.07;;;3.58;;
6665;SDS011;3369;49.906;8.598;2024-02-14T02:27:53;5.65;;;3.40;;
6665;SDS011;3369;49.906;8.598;2024-02-14T02:30:21;6.07;;;3.10;;
6665;SDS011;3369;49.906;8.598;2024-02-14T02:32:47;3.90;;;3.10;;
6665;SDS011;3369;49.906;8.598;2024-02-14T02:35:13;6.28;;;3.25;;
6665;SDS011;3369;49.906;8.598;2024-02-14T02:37:39;3.93;;;2.93;;
6665;SDS011;3369;49.906;8.598;2024-02-14T02:40:04;4.67;;;3.30;;
6665;SDS011;3369;49.906;8.598;2024-02-14T02:42:30;4.27;;;3.10;;
6665;SDS011;3369;49.906;8.598;2024-02-14T02:44:56;5.50;;;3.20;;
6665;SDS011;3369;49.906;8.598;2024-02-14T02:47:21;5.53;;;3.45;;
6665;SDS011;3369;49.906;8.598;2024-02-14T02:49:47;4.78;;;3.33;;
6665;SDS011;3369;49.906;8.598;2024-02-14T02:52:13;6.70;;;3.57;;
6665;SDS011;3369;49.906;8.598;2024-02-14T02:54:38;5.90;;;3.33;;
6665;SDS011;3369;49.906;8.598;2024-02-14T02:57:09;6.83;;;3.40;;
6665;SDS011;3369;49.906;8.598;2024-02-14T02:59:35;6.30;;;3.40;;
6665;SDS011;3369;49.906;8.598;2024-02-14T03:02:01;4.38;;;3.08;;
6665;SDS011;3369;49.906;8.598;2024-02-14T03:04:27;5.63;;;3.70;;
6665;SDS011;3369;49.906;8.598;2024-02-14T03:06:54;6.05;;;3.38;;
6665;SDS011;3369;49.906;8.598;2024-02-14T03:09:20;5.05;;;3.70;;
6665;SDS011;3369;49.906;8.598;2024-02-14T03:11:47;5.53;;;3.40;;
6665;SDS011;3369;49.906;8.598;2024-02-14T03:14:13;6.10;;;3.53;;
6665;SDS011;3369;49.906;8.598;2024-02-14T03:16:39;5.22;;;3.80;;
6665;SDS011;3369;49.906;8.598;2024-02-14T03:19:04;4.20;;;3.17;;
6665;SDS011;3369;49.906;8.598;2024-02-14T03:21:30;6.43;;;3.67;;
6665;SDS011;3369;49.906;8.598;2024-02-14T03:24:00;6.20;;;3.60;;
6665;SDS011;3369;49.906;8.598;2024-02-14T03:26:28;5.18;;;3.78;;
6665;SDS011;3369;49.906;8.598;2024-02-14T03:28:53;4.40;;;3.60;;
6665;SDS011;3369;49.906;8.598;2024-02-14T03:31:19;5.50;;;3.50;;
6665;SDS011;3369;49.906;8.598;2024-02-14T03:33:45;5.72;;;3.80;;
6665;SDS011;3369;49.906;8.598;2024-02-14T03:36:11;5.00;;;3.60;;
6665;SDS011;3369;49.906;8.598;2024-02-14T03:38:37;5.07;;;3.53;;
6665;SDS011;3369;49.906;8.598;2024-02-14T03:41:04;5.10;;;3.58;;
6665;SDS011;3369;49.906;8.598;2024-02-14T03:43:30;5.07;;;3.87;;
6665;SDS011;3369;49.906;8.598;2024-02-14T03:45:57;6.88;;;3.70;;
6665;SDS011;3369;49.906;8.598;2024-02-14T03:48:22;4.43;;;3.37;;
6665;SDS011;3369;49.906;8.598;2024-02-14T03:50:48;4.80;;;3.47;;
6665;SDS011;3369;49.906;8.598;2024-02-14T03:53:14;5.55;;;3.45;;
6665;SDS011;3369;49.906;8.598;2024-02-14T03:55:40;4.90;;;3.60;;
6665;SDS011;3369;49.906;8.598;2024-02-14T03:58:05;6.30;;;3.78;;
6665;SDS011;3369;49.906;8.598;2024-02-14T04:00:33;5.72;;;3.58;;
6665;SDS011;3369;49.906;8.598;2024-02-14T04:03:00;5.68;;;3.88;;
6665;SDS011;3369;49.906;8.598;2024-02-14T04:05:28;5.10;;;3.60;;
6665;SDS011;3369;49.906;8.598;2024-02-14T04:07:54;5.45;;;3.63;;
6665;SDS011;3369;49.906;8.598;2024-02-14T04:10:20;4.10;;;3.35;;
6665;SDS011;3369;49.906;8.598;2024-02-14T04:12:46;5.10;;;3.47;;
6665;SDS011;3369;49.906;8.598;2024-02-14T04:15:12;5.03;;;3.80;;
6665;SDS011;3369;49.906;8.598;2024-02-14T04:17:39;6.70;;;3.23;;
6665;SDS011;3369;49.906;8.598;2024-02-14T04:20:04;4.05;;;3.40;;
6665;SDS011;3369;49.906;8.598;2024-02-14T04:22:30;5.78;;;3.42;;
6665;SDS011;3369;49.906;8.598;2024-02-14T04:24:58;3.88;;;3.10;;
6665;SDS011;3369;49.906;8.598;2024-02-14T04:27:24;4.75;;;3.38;;
6665;SDS011;3369;49.906;8.598;2024-02-14T04:29:50;5.32;;;3.20;;
6665;SDS011;3369;49.906;8.598;2024-02-14T04:32:15;4.67;;;3.20;;
6665;SDS011;3369;49.906;8.598;2024-02-14T04:34:42;4.03;;;3.28;;
6665;SDS011;3369;49.906;8.598;2024-02-14T04:37:08;5.63;;;3.05;;
6665;SDS011;3369;49.906;8.598;2024-02-14T04:39:38;5.70;;;3.47;;
6665;SDS011;3369;49.906;8.598;2024-02-14T04:42:04;5.78;;;3.17;;
6665;SDS011;3369;49.906;8.598;2024-02-14T04:44:31;5.77;;;3.40;;
6665;SDS011;3369;49.906;8.598;2024-02-14T04:46:57;7.88;;;3.50;;
6665;SDS011;3369;49.906;8.598;2024-02-14T04:49:24;4.55;;;3.10;;
6665;SDS011;3369;49.906;8.598;2024-02-14T04:51:49;4.55;;;3.38;;
6665;SDS011;3369;49.906;8.598;2024-02-14T04:54:19;5.00;;;3.83;;
6665;SDS011;3369;49.906;8.598;2024-02-14T04:56:44;5.10;;;3.20;;
6665;SDS011;3369;49.906;8.598;2024-02-14T04:59:12;5.13;;;3.10;;
6665;SDS011;3369;49.906;8.598;2024-02-14T05:01:38;5.80;;;3.58;;
6665;SDS011;3369;49.906;8.598;2024-02-14T05:04:05;5.72;;;3.50;;
6665;SDS011;3369;49.906;8.598;2024-02-14T05:06:32;5.32;;;3.35;;
6665;SDS011;3369;49.906;8.598;2024-02-14T05:08:58;4.65;;;3.25;;
6665;SDS011;3369;49.906;8.598;2024-02-14T05:11:23;6.32;;;3.30;;
6665;SDS011;3369;49.906;8.598;2024-02-14T05:13:49;4.93;;;3.60;;
6665;SDS011;3369;49.906;8.598;2024-02-14T05:16:18;5.45;;;3.50;;
6665;SDS011;3369;49.906;8.598;2024-02-14T05:18:45;5.90;;;3.28;;
6665;SDS011;3369;49.906;8.598;2024-02-14T05:21:11;6.15;;;3.38;;
6665;SDS011;3369;49.906;8.598;2024-02-14T05:23:37;4.22;;;3.08;;
6665;SDS011;3369;49.906;8.598;2024-02-14T05:26:02;5.80;;;3.07;;
6665;SDS011;3369;49.906;8.598;2024-02-14T05:28:28;5.10;;;3.20;;
6665;SDS011;3369;49.906;8.598;2024-02-14T05:30:55;6.20;;;3.55;;
6665;SDS011;3369;49.906;8.598;2024-02-14T05:33:21;6.63;;;3.40;;
6665;SDS011;3369;49.906;8.598;2024-02-14T05:35:50;6.85;;;3.42;;
6665;SDS011;3369;49.906;8.598;2024-02-14T05:38:16;6.18;;;3.50;;
6665;SDS011;3369;49.906;8.598;2024-02-14T05:40:44;5.93;;;3.47;;
6665;SDS011;3369;49.906;8.598;2024-02-14T05:43:10;5.47;;;3.43;;
6665;SDS011;3369;49.906;8.598;2024-02-14T05:45:36;7.73;;;3.47;;
6665;SDS011;3369;49.906;8.598;2024-02-14T05:48:02;5.77;;;3.70;;
6665;SDS011;3369;49.906;8.598;2024-02-14T05:50:28;6.13;;;3.90;;
6665;SDS011;3369;49.906;8.598;2024-02-14T05:52:54;4.87;;;3.30;;
6665;SDS011;3369;49.906;8.598;2024-02-14T05:55:20;6.05;;;3.55;;
6665;SDS011;3369;49.906;8.598;2024-02-14T05:57:46;6.75;;;3.88;;
6665;SDS011;3369;49.906;8.598;2024-02-14T06:00:12;6.33;;;3.70;;
6665;SDS011;3369;49.906;8.598;2024-02-14T06:02:38;7.05;;;3.67;;
6665;SDS011;3369;49.906;8.598;2024-02-14T06:05:05;6.10;;;4.18;;
6665;SDS011;3369;49.906;8.598;2024-02-14T06:07:34;5.10;;;3.73;;
6665;SDS011;3369;49.906;8.598;2024-02-14T06:10:00;6.95;;;3.88;;
6665;SDS011;3369;49.906;8.598;2024-02-14T06:12:26;5.88;;;3.92;;
6665;SDS011;3369;49.906;8.598;2024-02-14T06:14:52;5.30;;;3.70;;
6665;SDS011;3369;49.906;8.598;2024-02-14T06:17:17;5.33;;;4.03;;
6665;SDS011;3369;49.906;8.598;2024-02-14T06:19:43;5.20;;;3.97;;
6665;SDS011;3369;49.906;8.598;2024-02-14T06:22:08;5.50;;;4.00;;
6665;SDS011;3369;49.906;8.598;2024-02-14T06:24:35;6.40;;;3.90;;
6665;SDS011;3369;49.906;8.598;2024-02-14T06:27:01;7.27;;;3.80;;
6665;SDS011;3369;49.906;8.598;2024-02-14T06:29:26;5.40;;;3.50;;
6665;SDS011;3369;49.906;8.598;2024-02-14T06:31:52;5.18;;;3.55;;
6665;SDS011;3369;49.906;8.598;2024-02-14T06:34:18;6.53;;;3.90;;
6665;SDS011;3369;49.906;8.598;2024-02-14T06:36:46;4.85;;;3.70;;
6665;SDS011;3369;49.906;8.598;2024-02-14T06:39:12;5.95;;;3.67;;
6665;SDS011;3369;49.906;8.598;2024-02-14T06:41:37;5.37;;;3.83;;
6665;SDS011;3369;49.906;8.598;2024-02-14T06:44:04;6.33;;;3.53;;
6665;SDS011;3369;49.906;8.598;2024-02-14T06:46:29;7.07;;;3.58;;
6665;SDS011;3369;49.906;8.598;2024-02-14T06:48:55;7.43;;;3.95;;
6665;SDS011;3369;49.906;8.598;2024-02-14T06:51:21;5.28;;;3.55;;
6665;SDS011;3369;49.906;8.598;2024-02-14T06:53:49;5.40;;;3.28;;
6665;SDS011;3369;49.906;8.598;2024-02-14T06:56:15;4.78;;;3.10;;
6665;SDS011;3369;49.906;8.598;2024-02-14T06:58:41;6.78;;;3.33;;
6665;SDS011;3369;49.906;8.598;2024-02-14T07:01:07;5.28;;;3.63;;
6665;SDS011;3369;49.906;8.598;2024-02-14T07:03:32;6.38;;;3.38;;
6665;SDS011;3369;49.906;8.598;2024-02-14T07:05:58;9.70;;;3.80;;
6665;SDS011;3369;49.906;8.598;2024-02-14T07:08:24;4.40;;;3.50;;
6665;SDS011;3369;49.906;8.598;2024-02-14T07:10:53;4.82;;;3.40;;
6665;SDS011;3369;49.906;8.598;2024-02-14T07:13:20;4.57;;;3.13;;
6665;SDS011;3369;49.906;8.598;2024-02-14T07:15:45;5.03;;;3.40;;
6665;SDS011;3369;49.906;8.598;2024-02-14T07:18:11;7.13;;;3.80;;
6665;SDS011;3369;49.906;8.598;2024-02-14T07:20:36;7.63;;;3.42;;
6665;SDS011;3369;49.906;8.598;2024-02-14T07:23:02;4.83;;;3.60;;
6665;SDS011;3369;49.906;8.598;2024-02-14T07:25:29;5.22;;;3.25;;
6665;SDS011;3369;49.906;8.598;2024-02-14T07:27:54;6.07;;;3.25;;
6665;SDS011;3369;49.906;8.598;2024-02-14T07:30:20;5.40;;;3.33;;
6665;SDS011;3369;49.906;8.598;2024-02-14T07:32:45;5.77;;;3.57;;
6665;SDS011;3369;49.906;8.598;2024-02-14T07:35:11;7.85;;;3.85;;
6665;SDS011;3369;49.906;8.598;2024-02-14T07:37:38;4.30;;;2.90;;
6665;SDS011;3369;49.906;8.598;2024-02-14T07:40:04;4.30;;;3.20;;
6665;SDS011;3369;49.906;8.598;2024-02-14T07:42:30;4.40;;;3.20;;
6665;SDS011;3369;49.906;8.598;2024-02-14T07:44:56;4.82;;;3.28;;
6665;SDS011;3369;49.906;8.598;2024-02-14T07:47:22;4.07;;;2.90;;
6665;SDS011;3369;49.906;8.598;2024-02-14T07:49:48;5.80;;;3.30;;
6665;SDS011;3369;49.906;8.598;2024-02-14T07:52:13;4.73;;;3.30;;
6665;SDS011;3369;49.906;8.598;2024-02-14T07:54:39;7.18;;;3.42;;
6665;SDS011;3369;49.906;8.598;2024-02-14T07:57:04;5.47;;;3.22;;
6665;SDS011;3369;49.906;8.598;2024-02-14T07:59:33;5.10;;;3.05;;
6665;SDS011;3369;49.906;8.598;2024-02-14T08:01:59;4.53;;;3.50;;
6665;SDS011;3369;49.906;8.598;2024-02-14T08:04:24;5.80;;;3.30;;
6665;SDS011;3369;49.906;8.598;2024-02-14T08:06:51;4.88;;;3.13;;
6665;SDS011;3369;49.906;8.598;2024-02-14T08:09:17;7.30;;;3.60;;
6665;SDS011;3369;49.906;8.598;2024-02-14T08:11:43;5.80;;;3.47;;
6665;SDS011;3369;49.906;8.598;2024-02-14T08:14:08;5.40;;;3.10;;
6665;SDS011;3369;49.906;8.598;2024-02-14T08:16:34;4.67;;;3.20;;
6665;SDS011;3369;49.906;8.598;2024-02-14T08:19:00;5.03;;;3.13;;
6665;SDS011;3369;49.906;8.598;2024-02-14T08:21:27;4.53;;;2.97;;
6665;SDS011;3369;49.906;8.598;2024-02-14T08:23:53;4.57;;;3.20;;
6665;SDS011;3369;49.906;8.598;2024-02-14T08:26:20;5.53;;;3.30;;
6665;SDS011;3369;49.906;8.598;2024-02-14T08:28:47;6.13;;;3.30;;
6665;SDS011;3369;49.906;8.598;2024-02-14T08:31:13;6.10;;;3.40;;
6665;SDS011;3369;49.906;8.598;2024-02-14T08:33:39;6.27;;;3.47;;
6665;SDS011;3369;49.906;8.598;2024-02-14T08:36:05;4.22;;;3.20;;
6665;SDS011;3369;49.906;8.598;2024-02-14T08:38:32;6.38;;;3.47;;
6665;SDS011;3369;49.906;8.598;2024-02-14T08:40:58;5.32;;;3.05;;
6665;SDS011;3369;49.906;8.598;2024-02-14T08:43:23;6.13;;;3.60;;
6665;SDS011;3369;49.906;8.598;2024-02-14T08:45:53;5.82;;;3.42;;
6665;SDS011;3369;49.906;8.598;2024-02-14T08:48:19;5.47;;;3.15;;
6665;SDS011;3369;49.906;8.598;2024-02-14T08:50:45;5.20;;;3.30;;
6665;SDS011;3369;49.906;8.598;2024-02-14T08:53:11;6.18;;;3.10;;
6665;SDS011;3369;49.906;8.598;2024-02-14T08:55:38;6.53;;;3.20;;
6665;SDS011;3369;49.906;8.598;2024-02-14T08:58:07;5.43;;;3.40;;
6665;SDS011;3369;49.906;8.598;2024-02-14T09:00:36;6.20;;;3.20;;
6665;SDS011;3369;49.906;8.598;2024-02-14T09:03:03;5.40;;;3.10;;
6665;SDS011;3369;49.906;8.598;2024-02-14T09:05:29;6.13;;;3.67;;
6665;SDS011;3369;49.906;8.598;2024-02-14T09:07:55;4.20;;;3.30;;
6665;SDS011;3369;49.906;8.598;2024-02-14T09:10:21;5.95;;;3.50;;
6665;SDS011;3369;49.906;8.598;2024-02-14T09:12:47;5.68;;;3.10;;
6665;SDS011;3369;49.906;8.598;2024-02-14T09:15:12;5.22;;;3.45;;
6665;SDS011;3369;49.906;8.598;2024-02-14T09:17:38;5.70;;;3.03;;
6665;SDS011;3369;49.906;8.598;2024-02-14T09:20:06;5.35;;;3.05;;
6665;SDS011;3369;49.906;8.598;2024-02-14T09:22:34;5.15;;;3.20;;
6665;SDS011;3369;49.906;8.598;2024-02-14T09:25:01;6.88;;;3.38;;
6665;SDS011;3369;49.906;8.598;2024-02-14T09:27:29;5.00;;;3.20;;
6665;SDS011;3369;49.906;8.598;2024-02-14T09:29:55;5.50;;;3.25;;
6665;SDS011;3369;49.906;8.598;2024-02-14T09:32:21;5.45;;;2.95;;
6665;SDS011;3369;49.906;8.598;2024-02-14T09:34:46;7.40;;;3.10;;
6665;SDS011;3369;49.906;8.598;2024-02-14T09:37:12;7.50;;;3.30;;
6665;SDS011;3369;49.906;8.598;2024-02-14T09:39:38;5.85;;;3.10;;
6665;SDS011;3369;49.906;8.598;2024-02-14T09:42:06;5.75;;;3.30;;
6665;SDS011;3369;49.906;8.598;2024-02-14T09:44:34;6.38;;;3.10;;
6665;SDS011;3369;49.906;8.598;2024-02-14T09:47:01;4.63;;;3.03;;
6665;SDS011;3369;49.906;8.598;2024-02-14T09:49:30;5.83;;;3.00;;
6665;SDS011;3369;49.906;8.598;2024-02-14T09:51:56;7.28;;;3.58;;
6665;SDS011;3369;49.906;8.598;2024-02-14T09:54:23;4.53;;;2.92;;
6665;SDS011;3369;49.906;8.598;2024-02-14T09:56:50;6.10;;;3.00;;
6665;SDS011;3369;49.906;8.598;2024-02-14T09:59:21;4.80;;;3.30;;
6665;SDS011;3369;49.906;8.598;2024-02-14T10:01:47;6.18;;;3.70;;
6665;SDS011;3369;49.906;8.598;2024-02-14T10:04:15;5.18;;;3.50;;
6665;SDS011;3369;49.906;8.598;2024-02-14T10:06:43;6.03;;;3.33;;
6665;SDS011;3369;49.906;8.598;2024-02-14T10:09:08;4.20;;;3.10;;
6665;SDS011;3369;49.906;8.598;2024-02-14T10:11:35;4.28;;;3.25;;
6665;SDS011;3369;49.906;8.598;2024-02-14T10:14:01;6.80;;;3.40;;
6665;SDS011;3369;49.906;8.598;2024-02-14T10:16:28;5.05;;;3.20;;
6665;SDS011;3369;49.906;8.598;2024-02-14T10:18:54;5.60;;;3.37;;
6665;SDS011;3369;49.906;8.598;2024-02-14T10:21:21;4.47;;;2.97;;
6665;SDS011;3369;49.906;8.598;2024-02-14T10:23:47;5.87;;;3.00;;
6665;SDS011;3369;49.906;8.598;2024-02-14T10:26:17;4.93;;;3.42;;
6665;SDS011;3369;49.906;8.598;2024-02-14T10:28:43;4.82;;;3.42;;
6665;SDS011;3369;49.906;8.598;2024-02-14T10:31:12;3.67;;;2.83;;
6665;SDS011;3369;49.906;8.598;2024-02-14T10:33:38;4.40;;;3.00;;
6665;SDS011;3369;49.906;8.598;2024-02-14T10:36:06;4.45;;;3.25;;
6665;SDS011;3369;49.906;8.598;2024-02-14T10:38:34;5.47;;;3.25;;
6665;SDS011;3369;49.906;8.598;2024-02-14T10:41:00;5.82;;;3.03;;
6665;SDS011;3369;49.906;8.598;2024-02-14T10:43:27;5.27;;;3.00;;
6665;SDS011;3369;49.906;8.598;2024-02-14T10:45:56;6.18;;;3.28;;
6665;SDS011;3369;49.906;8.598;2024-02-14T10:48:25;4.32;;;3.00;;
6665;SDS011;3369;49.906;8.598;2024-02-14T10:50:58;5.27;;;2.80;;
6665;SDS011;3369;49.906;8.598;2024-02-14T10:53:27;5.65;;;3.22;;
6665;SDS011;3369;49.906;8.598;2024-02-14T10:55:56;6.72;;;3.25;;
6665;SDS011;3369;49.906;8.598;2024-02-14T10:58:23;4.28;;;2.97;;
6665;SDS011;3369;49.906;8.598;2024-02-14T11:00:50;3.92;;;2.80;;
6665;SDS011;3369;49.906;8.598;2024-02-14T11:03:16;4.75;;;2.80;;
6665;SDS011;3369;49.906;8.598;2024-02-14T11:05:46;4.90;;;2.65;;
6665;SDS011;3369;49.906;8.598;2024-02-14T11:08:18;5.28;;;3.03;;
6665;SDS011;3369;49.906;8.598;2024-02-14T11:10:53;4.37;;;3.00;;
6665;SDS011;3369;49.906;8.598;2024-02-14T11:13:21;4.40;;;2.40;;
6665;SDS011;3369;49.906;8.598;2024-02-14T11:15:51;3.45;;;2.70;;
6665;SDS011;3369;49.906;8.598;2024-02-14T11:18:28;3.63;;;2.42;;
6665;SDS011;3369;49.906;8.598;2024-02-14T11:20:55;4.57;;;2.78;;
6665;SDS011;3369;49.906;8.598;2024-02-14T11:23:22;4.53;;;2.60;;
6665;SDS011;3369;49.906;8.598;2024-02-14T11:25:48;5.35;;;2.67;;
6665;SDS011;3369;49.906;8.598;2024-02-14T11:28:15;4.78;;;2.42;;
6665;SDS011;3369;49.906;8.598;2024-02-14T11:30:42;4.53;;;2.30;;
6665;SDS011;3369;49.906;8.598;2024-02-14T11:35:41;4.10;;;2.40;;
6665;SDS011;3369;49.906;8.598;2024-02-14T11:38:08;3.78;;;2.30;;
6665;SDS011;3369;49.906;8.598;2024-02-14T11:40:34;3.53;;;2.30;;
6665;SDS011;3369;49.906;8.598;2024-02-14T11:43:00;3.92;;;2.42;;
6665;SDS011;3369;49.906;8.598;2024-02-14T11:45:27;4.20;;;2.60;;
6665;SDS011;3369;49.906;8.598;2024-02-14T11:47:53;3.43;;;2.30;;
6665;SDS011;3369;49.906;8.598;2024-02-14T11:50:19;4.33;;;2.37;;
6665;SDS011;3369;49.906;8.598;2024-02-14T11:52:46;4.40;;;2.20;;
6665;SDS011;3369;49.906;8.598;2024-02-14T11:55:12;3.28;;;2.30;;
6665;SDS011;3369;49.906;8.598;2024-02-14T11:57:40;3.57;;;2.33;;
6665;SDS011;3369;49.906;8.598;2024-02-14T12:00:07;2.55;;;2.35;;
6665;SDS011;3369;49.906;8.598;2024-02-14T12:02:33;2.63;;;2.00;;
6665;SDS011;3369;49.906;8.598;2024-02-14T12:05:00;2.83;;;2.33;;
6665;SDS011;3369;49.906;8.598;2024-02-14T12:07:29;3.75;;;2.05;;
6665;SDS011;3369;49.906;8.598;2024-02-14T12:09:55;3.13;;;2.00;;
6665;SDS011;3369;49.906;8.598;2024-02-14T12:12:21;5.10;;;2.40;;
6665;SDS011;3369;49.906;8.598;2024-02-14T12:14:51;3.72;;;2.08;;
6665;SDS011;3369;49.906;8.598;2024-02-14T12:17:19;3.00;;;2.17;;
6665;SDS011;3369;49.906;8.598;2024-02-14T12:19:47;3.40;;;2.30;;
6665;SDS011;3369;49.906;8.598;2024-02-14T12:22:13;3.95;;;2.20;;
6665;SDS011;3369;49.906;8.598;2024-02-14T12:24:46;2.97;;;2.20;;
6665;SDS011;3369;49.906;8.598;2024-02-14T12:27:18;2.88;;;2.13;;
6665;SDS011;3369;49.906;8.598;2024-02-14T12:29:45;2.67;;;2.30;;
6665;SDS011;3369;49.906;8.598;2024-02-14T12:32:11;3.55;;;2.30;;
6665;SDS011;3369;49.906;8.598;2024-02-14T12:34:43;2.30;;;2.10;;
6665;SDS011;3369;49.906;8.598;2024-02-14T12:37:09;2.90;;;2.10;;
6665;SDS011;3369;49.906;8.598;2024-02-14T12:39:36;2.58;;;1.90;;
6665;SDS011;3369;49.906;8.598;2024-02-14T12:42:02;2.25;;;2.05;;
6665;SDS011;3369;49.906;8.598;2024-02-14T12:44:29;2.63;;;2.00;;
6665;SDS011;3369;49.906;8.598;2024-02-14T12:46:54;2.78;;;1.70;;
6665;SDS011;3369;49.906;8.598;2024-02-14T12:49:20;2.77;;;2.10;;
6665;SDS011;3369;49.906;8.598;2024-02-14T12:51:46;3.17;;;1.65;;
6665;SDS011;3369;49.906;8.598;2024-02-14T12:54:12;2.20;;;2.00;;
6665;SDS011;3369;49.906;8.598;2024-02-14T12:56:39;1.92;;;1.67;;
6665;SDS011;3369;49.906;8.598;2024-02-14T12:59:05;3.15;;;2.10;;
6665;SDS011;3369;49.906;8.598;2024-02-14T13:01:31;2.43;;;1.80;;
6665;SDS011;3369;49.906;8.598;2024-02-14T13:03:57;2.50;;;1.90;;
6665;SDS011;3369;49.906;8.598;2024-02-14T13:06:24;3.23;;;1.90;;
6665;SDS011;3369;49.906;8.598;2024-02-14T13:08:50;2.77;;;1.80;;
6665;SDS011;3369;49.906;8.598;2024-02-14T13:11:15;3.50;;;2.20;;
6665;SDS011;3369;49.906;8.598;2024-02-14T13:13:41;2.05;;;1.83;;
6665;SDS011;3369;49.906;8.598;2024-02-14T13:16:07;2.70;;;2.13;;
6665;SDS011;3369;49.906;8.598;2024-02-14T13:18:33;3.72;;;2.30;;
6665;SDS011;3369;49.906;8.598;2024-02-14T13:21:00;2.20;;;2.00;;
6665;SDS011;3369;49.906;8.598;2024-02-14T13:23:26;2.63;;;2.10;;
6665;SDS011;3369;49.906;8.598;2024-02-14T13:25:52;2.70;;;1.98;;
6665;SDS011;3369;49.906;8.598;2024-02-14T13:28:17;2.77;;;2.10;;
6665;SDS011;3369;49.906;8.598;2024-02-14T13:30:43;2.95;;;2.40;;
6665;SDS011;3369;49.906;8.598;2024-02-14T13:33:09;2.45;;;2.17;;
6665;SDS011;3369;49.906;8.598;2024-02-14T13:35:36;3.60;;;2.53;;
6665;SDS011;3369;49.906;8.598;2024-02-14T13:38:04;2.53;;;2.33;;
6665;SDS011;3369;49.906;8.598;2024-02-14T13:40:34;3.63;;;2.80;;
6665;SDS011;3369;49.906;8.598;2024-02-14T13:43:00;3.17;;;2.10;;
6665;SDS011;3369;49.906;8.598;2024-02-14T13:45:25;5.80;;;2.70;;
6665;SDS011;3369;49.906;8.598;2024-02-14T13:47:52;3.13;;;2.83;;
6665;SDS011;3369;49.906;8.598;2024-02-14T13:50:32;3.20;;;2.55;;
6665;SDS011;3369;49.906;8.598;2024-02-14T13:52:58;4.47;;;2.90;;
6665;SDS011;3369;49.906;8.598;2024-02-14T13:55:24;4.00;;;2.73;;
6665;SDS011;3369;49.906;8.598;2024-02-14T13:57:50;2.80;;;2.50;;
6665;SDS011;3369;49.906;8.598;2024-02-14T14:00:16;2.90;;;2.55;;
6665;SDS011;3369;49.906;8.598;2024-02-14T14:02:41;3.90;;;3.13;;
6665;SDS011;3369;49.906;8.598;2024-02-14T14:05:08;4.30;;;3.40;;
6665;SDS011;3369;49.906;8.598;2024-02-14T14:07:40;5.05;;;3.60;;
6665;SDS011;3369;49.906;8.598;2024-02-14T14:10:07;3.35;;;2.20;;
6665;SDS011;3369;49.906;8.598;2024-02-14T14:12:37;2.92;;;1.90;;
6665;SDS011;3369;49.906;8.598;2024-02-14T14:15:03;3.38;;;2.15;;
6665;SDS011;3369;49.906;8.598;2024-02-14T14:17:30;2.25;;;2.05;;
6665;SDS011;3369;49.906;8.598;2024-02-14T14:19:55;2.57;;;1.80;;
6665;SDS011;3369;49.906;8.598;2024-02-14T14:22:21;2.70;;;1.73;;
6665;SDS011;3369;49.906;8.598;2024-02-14T14:24:47;3.35;;;1.90;;
6665;SDS011;3369;49.906;8.598;2024-02-14T14:27:12;1.98;;;1.70;;
6665;SDS011;3369;49.906;8.598;2024-02-14T14:29:42;2.45;;;1.98;;
6665;SDS011;3369;49.906;8.598;2024-02-14T14:32:08;2.30;;;1.90;;
6665;SDS011;3369;49.906;8.598;2024-02-14T14:34:35;2.63;;;1.93;;
6665;SDS011;3369;49.906;8.598;2024-02-14T14:37:01;2.47;;;2.00;;
6665;SDS011;3369;49.906;8.598;2024-02-14T14:39:27;2.17;;;1.98;;
6665;SDS011;3369;49.906;8.598;2024-02-14T14:41:53;2.03;;;1.73;;
6665;SDS011;3369;49.906;8.598;2024-02-14T14:44:23;1.85;;;1.75;;
6665;SDS011;3369;49.906;8.598;2024-02-14T14:46:49;2.60;;;2.10;;
6665;SDS011;3369;49.906;8.598;2024-02-14T14:49:15;2.50;;;2.20;;
6665;SDS011;3369;49.906;8.598;2024-02-14T14:51:40;4.03;;;2.35;;
6665;SDS011;3369;49.906;8.598;2024-02-14T14:54:06;2.87;;;2.10;;
6665;SDS011;3369;49.906;8.598;2024-02-14T14:56:31;3.10;;;2.80;;
6665;SDS011;3369;49.906;8.598;2024-02-14T14:58:57;3.10;;;2.60;;
6665;SDS011;3369;49.906;8.598;2024-02-14T15:01:25;4.55;;;2.88;;
6665;SDS011;3369;49.906;8.598;2024-02-14T15:03:52;4.45;;;3.13;;
6665;SDS011;3369;49.906;8.598;2024-02-14T15:06:18;4.25;;;3.00;;
6665;SDS011;3369;49.906;8.598;2024-02-14T15:08:44;3.38;;;3.00;;
6665;SDS011;3369;49.906;8.598;2024-02-14T15:11:10;3.58;;;3.10;;
6665;SDS011;3369;49.906;8.598;2024-02-14T15:13:40;3.65;;;2.90;;